createdAt,value
2023-01-07T00:01:29.641Z,8.00
2023-01-07T00:05:13.682Z,8.04
2023-01-07T00:08:58.091Z,8.08
2023-01-07T00:12:40.806Z,8.10
2023-01-07T00:16:25.326Z,8.09
2023-01-07T00:20:08.577Z,8.07
2023-01-07T00:23:55.290Z,8.08
2023-01-07T00:27:38.025Z,8.07
2023-01-07T00:31:23.427Z,8.04
2023-01-07T00:35:21.458Z,8.16
2023-01-07T00:39:07.024Z,8.24
2023-01-07T00:42:58.143Z,8.21
2023-01-07T00:46:40.890Z,8.18
2023-01-07T00:50:25.662Z,8.22
2023-01-07T00:54:09.741Z,8.23
2023-01-07T00:57:52.871Z,8.23
2023-01-07T01:01:35.791Z,8.23
2023-01-07T01:05:19.310Z,8.21
2023-01-07T01:09:01.987Z,8.23
2023-01-07T01:12:49.840Z,8.24
2023-01-07T01:16:35.101Z,8.27
2023-01-07T01:20:17.926Z,8.26
2023-01-07T01:24:00.628Z,8.26
2023-01-07T01:27:44.088Z,8.25
2023-01-07T01:31:28.330Z,8.27
2023-01-07T01:35:11.085Z,8.25
2023-01-07T01:38:53.966Z,8.19
2023-01-07T01:42:36.627Z,8.17
2023-01-07T01:46:29.573Z,8.14
2023-01-07T01:50:18.583Z,8.11
2023-01-07T01:54:04.542Z,8.10
2023-01-07T01:57:49.980Z,8.08
2023-01-07T02:01:35.056Z,8.08
2023-01-07T02:05:18.280Z,8.05
2023-01-07T02:09:01.082Z,8.05
2023-01-07T02:13:12.323Z,8.09
2023-01-07T02:17:13.398Z,8.10
2023-01-07T02:21:03.698Z,8.08
2023-01-07T02:25:00.769Z,8.07
2023-01-07T02:29:03.975Z,8.08
2023-01-07T02:33:05.852Z,8.08
2023-01-07T02:36:52.367Z,8.08
2023-01-07T02:40:40.523Z,8.07
2023-01-07T02:44:28.646Z,8.06
2023-01-07T02:48:17.060Z,8.06
2023-01-07T02:52:16.077Z,8.05
2023-01-07T02:56:10.342Z,8.04
2023-01-07T03:00:14.032Z,8.02
2023-01-07T03:04:16.154Z,8.04
2023-01-07T03:08:10.924Z,8.03
2023-01-07T03:11:59.129Z,8.01
2023-01-07T03:15:45.246Z,8.04
2023-01-07T03:19:31.588Z,8.05
2023-01-07T03:23:16.289Z,8.05
2023-01-07T03:27:00.347Z,8.00
2023-01-07T03:30:43.297Z,7.94
2023-01-07T03:34:29.827Z,7.94
2023-01-07T03:38:14.452Z,7.96
2023-01-07T03:42:14.817Z,7.92
2023-01-07T03:45:59.097Z,7.91
2023-01-07T03:49:42.095Z,7.91
2023-01-07T03:53:26.119Z,7.88
2023-01-07T03:57:08.973Z,7.85
2023-01-07T04:00:51.744Z,7.85
2023-01-07T04:04:38.521Z,7.86
2023-01-07T04:08:21.265Z,7.84
2023-01-07T04:12:05.380Z,7.81
2023-01-07T04:15:48.058Z,7.78
2023-01-07T04:19:30.761Z,7.73
2023-01-07T04:23:13.416Z,7.70
2023-01-07T04:26:58.497Z,7.69
2023-01-07T04:30:42.670Z,7.68
2023-01-07T04:34:25.620Z,7.67
2023-01-07T04:38:08.422Z,7.60
2023-01-07T04:41:51.192Z,7.53
2023-01-07T04:45:36.300Z,7.47
2023-01-07T04:49:20.365Z,7.44
2023-01-07T04:53:03.000Z,7.40
2023-01-07T04:56:46.627Z,7.36
2023-01-07T05:00:29.249Z,7.32
2023-01-07T05:04:12.003Z,7.29
2023-01-07T05:07:56.103Z,7.25
2023-01-07T05:11:38.792Z,7.19
2023-01-07T05:15:21.528Z,7.16
2023-01-07T05:19:04.539Z,7.13
2023-01-07T05:22:47.720Z,7.08
2023-01-07T05:26:32.622Z,7.01
2023-01-07T05:30:18.091Z,6.95
2023-01-07T05:34:00.790Z,6.88
2023-01-07T05:37:43.570Z,6.81
2023-01-07T05:41:26.321Z,6.73
2023-01-07T05:45:11.377Z,6.64
2023-01-07T05:48:54.636Z,6.58
2023-01-07T05:52:37.392Z,6.50
2023-01-07T05:56:20.115Z,6.44
2023-01-07T06:00:03.112Z,6.41
2023-01-07T06:03:47.177Z,6.32
2023-01-07T06:07:29.893Z,6.27
2023-01-07T06:11:12.714Z,6.20
2023-01-07T06:14:55.377Z,6.12
2023-01-07T06:18:38.197Z,6.05
2023-01-07T06:22:24.090Z,6.01
2023-01-07T06:26:06.744Z,5.94
2023-01-07T06:29:49.583Z,5.90
2023-01-07T06:33:33.608Z,5.85
2023-01-07T06:37:17.969Z,5.84
2023-01-07T06:41:02.508Z,5.77
2023-01-07T06:44:45.212Z,5.73
2023-01-07T06:48:30.511Z,5.68
2023-01-07T06:52:13.272Z,5.64
2023-01-07T06:55:55.958Z,5.58
2023-01-07T06:59:39.998Z,5.55
2023-01-07T07:03:22.678Z,5.50
2023-01-07T07:07:05.388Z,5.45
2023-01-07T07:10:48.091Z,5.38
2023-01-07T07:14:30.774Z,5.35
2023-01-07T07:18:14.803Z,5.33
2023-01-07T07:21:57.653Z,5.28
2023-01-07T07:25:40.705Z,5.27
2023-01-07T07:29:23.417Z,5.23
2023-01-07T07:33:06.518Z,5.19
2023-01-07T07:36:50.614Z,5.18
2023-01-07T07:40:33.268Z,5.15
2023-01-07T07:44:16.160Z,5.15
2023-01-07T07:47:58.868Z,5.13
2023-01-07T07:51:41.528Z,5.11
2023-01-07T07:55:26.589Z,5.11
2023-01-07T07:59:09.720Z,5.08
2023-01-07T08:02:52.432Z,5.11
2023-01-07T08:06:35.331Z,5.15
2023-01-07T08:10:18.239Z,5.17
2023-01-07T08:14:02.450Z,5.19
2023-01-07T08:17:45.395Z,5.22
2023-01-07T08:21:28.056Z,5.24
2023-01-07T08:25:13.247Z,5.28
2023-01-07T08:28:55.955Z,5.31
2023-01-07T08:32:42.744Z,5.34
2023-01-07T08:36:25.462Z,5.39
2023-01-07T08:40:09.083Z,5.45
2023-01-07T08:43:52.173Z,5.51
2023-01-07T08:47:37.058Z,5.54
2023-01-07T08:51:21.132Z,5.60
2023-01-07T08:55:03.934Z,5.61
2023-01-07T08:58:46.616Z,5.61
2023-01-07T09:02:29.460Z,5.65
2023-01-07T09:06:12.889Z,5.72
2023-01-07T09:09:56.861Z,5.77
2023-01-07T09:13:39.616Z,5.84
2023-01-07T09:17:24.154Z,5.90
2023-01-07T09:21:07.392Z,5.97
2023-01-07T09:24:50.071Z,6.02
2023-01-07T09:28:34.430Z,6.10
2023-01-07T09:32:17.098Z,6.16
2023-01-07T09:35:59.845Z,6.22
2023-01-07T09:39:42.708Z,6.26
2023-01-07T09:43:59.692Z,6.31
2023-01-07T09:47:34.823Z,6.38
2023-01-07T09:51:23.655Z,6.43
2023-01-07T09:55:09.992Z,6.49
2023-01-07T09:58:52.821Z,6.58
2023-01-07T10:02:45.033Z,6.62
2023-01-07T10:06:43.024Z,6.70
2023-01-07T10:10:32.940Z,6.77
2023-01-07T10:14:43.799Z,6.87
2023-01-07T10:18:37.210Z,6.88
2023-01-07T10:22:25.214Z,6.94
2023-01-07T10:26:16.980Z,7.07
2023-01-07T10:30:03.218Z,7.18
2023-01-07T10:33:48.674Z,7.26
2023-01-07T10:37:33.640Z,7.27
2023-01-07T10:41:22.664Z,7.29
2023-01-07T10:45:34.075Z,7.38
2023-01-07T10:49:33.216Z,8.66
2023-01-07T10:53:29.717Z,9.92
2023-01-07T10:57:16.215Z,9.74
2023-01-07T11:00:59.273Z,9.44
2023-01-07T11:04:43.400Z,9.18
2023-01-07T11:08:31.220Z,9.03
2023-01-07T11:12:25.290Z,8.94
2023-01-07T11:16:11.795Z,8.86
2023-01-07T11:19:56.455Z,8.81
2023-01-07T11:23:42.796Z,8.82
2023-01-07T11:27:31.235Z,8.83
2023-01-07T11:31:13.895Z,8.84
2023-01-07T11:35:00.853Z,8.88
2023-01-07T11:38:43.813Z,8.97
2023-01-07T11:42:41.723Z,9.10
2023-01-07T11:46:26.909Z,9.23
2023-01-07T11:50:22.333Z,9.36
2023-01-07T11:54:05.195Z,9.50
2023-01-07T11:58:03.490Z,9.63
2023-01-07T12:01:59.270Z,9.77
2023-01-07T12:05:45.353Z,9.98
2023-01-07T12:09:34.480Z,10.14
2023-01-07T12:13:21.139Z,10.28
2023-01-07T12:17:12.059Z,10.40
2023-01-07T12:21:16.431Z,10.60
2023-01-07T12:25:20.043Z,10.78
2023-01-07T12:29:11.383Z,10.87
2023-01-07T12:33:02.840Z,10.99
2023-01-07T12:36:50.602Z,11.12
2023-01-07T12:40:36.532Z,11.35
2023-01-07T12:44:21.603Z,11.63
2023-01-07T12:48:07.438Z,11.83
2023-01-07T12:51:56.605Z,11.99
2023-01-07T12:55:46.171Z,12.09
2023-01-07T12:59:46.064Z,12.19
2023-01-07T13:03:39.158Z,12.29
2023-01-07T13:07:26.529Z,12.42
2023-01-07T13:11:20.583Z,12.43
2023-01-07T13:15:05.097Z,12.44
2023-01-07T13:18:47.782Z,12.53
2023-01-07T13:22:35.205Z,12.63
2023-01-07T13:26:29.527Z,12.72
2023-01-07T13:30:24.170Z,12.85
2023-01-07T13:34:20.635Z,12.95
2023-01-07T13:38:15.427Z,13.03
2023-01-07T13:42:07.977Z,13.12
2023-01-07T13:45:56.532Z,13.14
2023-01-07T13:49:39.583Z,13.20
2023-01-07T13:53:50.122Z,13.32
2023-01-07T13:57:46.001Z,13.45
2023-01-07T14:01:29.720Z,13.50
2023-01-07T14:05:25.543Z,13.53
2023-01-07T14:09:32.365Z,13.58
2023-01-07T14:13:27.263Z,13.54
2023-01-07T14:17:16.122Z,13.51
2023-01-07T14:21:08.095Z,13.57
2023-01-07T14:25:14.275Z,13.71
2023-01-07T14:29:10.690Z,13.84
2023-01-07T14:32:58.229Z,13.83
2023-01-07T14:37:11.631Z,13.82
2023-01-07T14:41:09.535Z,13.79
2023-01-07T14:44:52.537Z,13.62
2023-01-07T14:48:37.039Z,13.60
2023-01-07T14:52:44.653Z,13.58
2023-01-07T14:56:36.348Z,13.57
2023-01-07T15:00:38.819Z,13.48
2023-01-07T15:04:52.492Z,13.44
2023-01-07T15:09:02.480Z,13.46
2023-01-07T15:13:05.781Z,13.64
2023-01-07T15:16:50.707Z,13.63
2023-01-07T15:20:42.745Z,13.47
2023-01-07T15:24:32.472Z,13.17
2023-01-07T15:28:22.372Z,12.78
2023-01-07T15:32:09.883Z,12.34
2023-01-07T15:35:52.824Z,12.01
2023-01-07T15:39:40.266Z,11.67
2023-01-07T15:43:28.528Z,11.34
2023-01-07T15:47:36.541Z,10.94
2023-01-07T15:51:19.765Z,10.61
2023-01-07T15:55:15.019Z,10.34
2023-01-07T15:58:59.128Z,10.04
2023-01-07T16:02:43.509Z,9.81
2023-01-07T16:06:33.544Z,9.61
2023-01-07T16:10:20.700Z,9.42
2023-01-07T16:14:12.504Z,9.35
2023-01-07T16:17:56.786Z,9.25
2023-01-07T16:21:42.446Z,9.19
2023-01-07T16:25:32.470Z,9.10
2023-01-07T16:29:18.548Z,8.98
2023-01-07T16:33:01.496Z,8.90
2023-01-07T16:36:45.191Z,8.86
2023-01-07T16:40:34.448Z,8.78
2023-01-07T16:44:58.693Z,8.67
2023-01-07T16:48:41.367Z,8.64
2023-01-07T16:52:27.739Z,8.54
2023-01-07T16:56:15.205Z,9.03
2023-01-07T17:00:01.663Z,11.05
2023-01-07T17:03:48.720Z,10.73
2023-01-07T17:07:31.569Z,10.02
2023-01-07T17:11:21.441Z,9.41
2023-01-07T17:15:33.474Z,8.91
2023-01-07T17:19:24.412Z,8.47
2023-01-07T17:23:32.312Z,8.03
2023-01-07T17:27:22.609Z,7.82
2023-01-07T17:31:07.346Z,7.60
2023-01-07T17:34:50.072Z,7.33
2023-01-07T17:38:32.965Z,7.13
2023-01-07T17:42:39.480Z,6.98
2023-01-07T17:46:24.166Z,6.84
2023-01-07T17:50:07.648Z,6.75
2023-01-07T17:53:51.862Z,6.73
2023-01-07T17:57:34.544Z,6.65
2023-01-07T18:01:20.053Z,6.61
2023-01-07T18:05:04.508Z,6.57
2023-01-07T18:08:47.666Z,6.41
2023-01-07T18:12:34.611Z,6.28
2023-01-07T18:16:17.435Z,6.23
2023-01-07T18:20:00.162Z,6.24
2023-01-07T18:23:45.854Z,6.19
2023-01-07T18:27:28.549Z,6.12
2023-01-07T18:31:11.471Z,6.07
2023-01-07T18:34:54.223Z,6.05
2023-01-07T18:38:36.912Z,6.00
2023-01-07T18:42:21.011Z,5.94
2023-01-07T18:46:08.355Z,5.93
2023-01-07T18:49:51.119Z,5.85
2023-01-07T18:53:33.838Z,5.79
2023-01-07T18:57:16.582Z,5.77
2023-01-07T19:01:04.754Z,5.65
2023-01-07T19:04:48.031Z,5.64
2023-01-07T19:08:31.343Z,5.64
2023-01-07T19:12:14.552Z,5.59
2023-01-07T19:15:57.210Z,5.58
2023-01-07T19:19:48.468Z,5.58
2023-01-07T19:23:31.684Z,5.49
2023-01-07T19:27:14.389Z,5.38
2023-01-07T19:30:57.086Z,5.33
2023-01-07T19:34:41.154Z,5.32
2023-01-07T19:38:23.912Z,5.31
2023-01-07T19:42:07.044Z,5.34
2023-01-07T19:45:56.192Z,5.35
2023-01-07T19:49:38.993Z,5.35
2023-01-07T19:53:23.448Z,5.27
2023-01-07T19:57:06.169Z,5.23
2023-01-07T20:00:48.883Z,5.26
2023-01-07T20:04:31.739Z,5.23
2023-01-07T20:08:14.414Z,5.22
2023-01-07T20:11:58.467Z,5.14
2023-01-07T20:15:41.121Z,5.13
2023-01-07T20:19:24.268Z,5.17
2023-01-07T20:23:06.909Z,5.18
2023-01-07T20:26:49.624Z,5.06
2023-01-07T20:30:33.922Z,5.07
2023-01-07T20:34:16.638Z,5.05
2023-01-07T20:37:59.377Z,5.08
2023-01-07T20:41:45.144Z,5.04
2023-01-07T20:45:27.816Z,5.00
2023-01-07T20:49:13.331Z,4.98
2023-01-07T20:52:56.001Z,5.00
2023-01-07T20:56:38.770Z,5.02
2023-01-07T21:00:21.465Z,5.01
2023-01-07T21:04:04.255Z,4.99
2023-01-07T21:07:48.334Z,4.97
2023-01-07T21:11:31.030Z,4.92
2023-01-07T21:15:15.755Z,4.89
2023-01-07T21:18:58.526Z,4.89
2023-01-07T21:22:41.558Z,4.89
2023-01-07T21:26:26.173Z,4.82
2023-01-07T21:30:14.278Z,4.79
2023-01-07T21:33:58.182Z,4.69
2023-01-07T21:37:40.870Z,4.65
2023-01-07T21:41:25.733Z,4.59
2023-01-07T21:45:09.355Z,4.57
2023-01-07T21:48:52.940Z,4.52
2023-01-07T21:52:35.746Z,4.56
2023-01-07T21:56:19.035Z,4.63
2023-01-07T22:00:03.305Z,4.68
2023-01-07T22:03:48.249Z,4.64
2023-01-07T22:07:30.986Z,4.60
2023-01-07T22:11:14.336Z,4.64
2023-01-07T22:14:57.111Z,4.67
2023-01-07T22:18:41.228Z,4.70
2023-01-07T22:22:23.938Z,4.70
2023-01-07T22:26:07.998Z,4.73
2023-01-07T22:29:50.692Z,4.82
2023-01-07T22:33:36.440Z,4.86
2023-01-07T22:37:23.894Z,4.89
2023-01-07T22:41:10.367Z,4.89
2023-01-07T22:44:58.936Z,4.91
2023-01-07T22:48:41.696Z,4.91
2023-01-07T22:52:25.714Z,4.89
2023-01-07T22:56:08.853Z,4.84
2023-01-07T22:59:51.586Z,4.81
2023-01-07T23:03:34.638Z,4.81
2023-01-07T23:07:17.419Z,4.79
2023-01-07T23:11:01.464Z,4.77
2023-01-07T23:14:44.191Z,4.73
2023-01-07T23:18:26.871Z,4.65
2023-01-07T23:22:09.537Z,4.32
2023-01-07T23:25:52.646Z,4.14
2023-01-07T23:29:36.849Z,4.07
2023-01-07T23:33:19.592Z,4.00
2023-01-07T23:37:02.324Z,3.87
2023-01-07T23:40:45.970Z,3.87
2023-01-07T23:44:28.655Z,3.88
2023-01-07T23:48:12.711Z,3.88
2023-01-07T23:51:55.373Z,3.75
2023-01-07T23:55:39.192Z,3.75
2023-01-07T23:59:22.007Z,3.80
